Time;durP1;ratioP1;P1;durP2;ratioP2;P2;SDS_P1;SDS_P2;PMS_P1;PMS_P2;Temp;Humidity;BMP_temperature;BMP_pressure;BME280_temperature;BME280_humidity;BME280_pressure;Samples;Min_cycle;Max_cycle;Signal;HPM_P1;HPM_P2
2023/06/18 00:00:36;;;;;;;;;22.00;20.00;;;;;26.13;42.55;100599.81;4936233;28;46449;-75
2023/06/18 00:03:02;;;;;;;;;30.00;24.33;;;;;26.13;42.87;100603.34;4945276;28;45444;-77
2023/06/18 00:05:28;;;;;;;;;26.00;24.00;;;;;26.11;42.83;100591.84;4946842;28;45422;-76
2023/06/18 00:07:54;;;;;;;;;25.00;22.67;;;;;25.88;42.74;100550.41;4956378;28;45399;-82
2023/06/18 00:10:20;;;;;;;;;27.33;25.00;;;;;26.03;42.71;100564.66;4955828;28;45399;-77
2023/06/18 00:12:45;;;;;;;;;23.33;23.33;;;;;26.17;42.73;100577.16;4958501;28;45493;-76
2023/06/18 00:15:12;;;;;;;;;28.00;24.67;;;;;26.20;42.79;100593.91;4959946;28;45479;-79
2023/06/18 00:17:37;;;;;;;;;25.33;24.33;;;;;26.12;42.96;100571.22;4956563;28;45352;-74
2023/06/18 00:20:03;;;;;;;;;26.33;22.67;;;;;26.29;42.42;100589.78;4955652;28;45568;-73
2023/06/18 00:22:37;;;;;;;;;24.00;23.33;;;;;26.04;42.68;100552.94;4957561;28;45348;-75
2023/06/18 00:25:07;;;;;;;;;27.67;26.67;;;;;26.21;42.94;100590.25;4957726;28;45574;-73
2023/06/18 00:27:33;;;;;;;;;25.00;23.33;;;;;26.16;42.87;100592.41;4941443;28;45721;-73
2023/06/18 00:30:04;;;;;;;;;28.00;25.67;;;;;25.87;43.33;100559.41;4936494;28;45492;-74
2023/06/18 00:32:33;;;;;;;;;24.67;24.00;;;;;25.78;43.54;100568.03;4935472;28;45824;-73
2023/06/18 00:35:00;;;;;;;;;28.33;23.67;;;;;25.70;43.55;100554.22;4936670;28;45680;-73
2023/06/18 00:37:27;;;;;;;;;28.00;24.33;;;;;25.95;43.61;100578.53;4936380;28;45340;-75
2023/06/18 00:39:54;;;;;;;;;22.67;22.33;;;;;25.76;43.75;100552.00;4936376;28;46362;-74
2023/06/18 00:42:20;;;;;;;;;25.33;18.67;;;;;25.97;43.52;100590.03;4935754;28;45707;-74
2023/06/18 00:44:46;;;;;;;;;25.67;25.00;;;;;25.92;43.71;100599.38;4936276;28;45484;-72
2023/06/18 00:47:13;;;;;;;;;26.00;26.00;;;;;25.71;43.61;100583.63;4936298;28;45563;-72
2023/06/18 00:49:44;;;;;;;;;27.00;26.00;;;;;25.81;43.60;100608.91;4935979;28;45432;-73
2023/06/18 00:52:14;;;;;;;;;25.67;24.67;;;;;25.81;43.70;100616.97;4935723;28;45518;-74
2023/06/18 00:54:46;;;;;;;;;27.67;24.67;;;;;25.84;44.52;100617.72;4936356;28;45491;-73
2023/06/18 00:57:15;;;;;;;;;27.00;24.67;;;;;25.61;45.49;100603.97;4936175;28;45458;-73
2023/06/18 00:59:45;;;;;;;;;30.00;25.00;;;;;25.73;46.53;100647.94;4936970;28;45499;-72
2023/06/18 01:02:12;;;;;;;;;27.33;26.67;;;;;25.61;47.11;100638.84;4935823;28;45385;-73
2023/06/18 01:04:38;;;;;;;;;26.67;26.67;;;;;25.65;48.20;100645.72;4935624;28;45441;-74
2023/06/18 01:07:12;;;;;;;;;26.67;25.33;;;;;25.78;47.72;100652.03;4955347;28;45604;-74
2023/06/18 01:09:40;;;;;;;;;24.33;21.33;;;;;25.85;48.68;100648.97;4956822;28;46847;-75
2023/06/18 01:12:07;;;;;;;;;25.33;23.00;;;;;25.91;48.31;100645.91;4954947;28;45432;-73
2023/06/18 01:14:37;;;;;;;;;25.00;24.00;;;;;25.78;48.87;100625.22;4955476;28;45479;-73
2023/06/18 01:17:05;;;;;;;;;24.33;23.33;;;;;25.98;49.38;100647.25;4954112;28;45310;-74
2023/06/18 01:19:46;;;;;;;;;22.33;20.33;;;;;26.05;50.35;100653.09;4954976;28;45389;-74
2023/06/18 01:22:37;;;;;;;;;21.00;21.00;;;;;25.72;56.03;100647.06;4954760;28;45362;-73
2023/06/18 01:25:05;;;;;;;;;25.33;23.33;;;;;25.60;55.24;100651.38;4956058;28;45482;-74
2023/06/18 01:27:40;;;;;;;;;22.67;21.67;;;;;25.46;57.51;100645.13;4958879;28;45441;-74
2023/06/18 01:30:07;;;;;;;;;24.33;22.00;;;;;25.41;56.57;100647.22;4953892;28;47912;-73
2023/06/18 01:32:33;;;;;;;;;23.00;23.00;;;;;25.36;56.61;100618.88;4954817;28;45596;-74
2023/06/18 01:35:01;;;;;;;;;24.33;23.67;;;;;25.32;57.16;100595.06;4959304;28;45411;-74
2023/06/18 01:37:57;;;;;;;;;23.00;23.00;;;;;25.31;58.45;100612.09;4959229;28;45475;-73
2023/06/18 01:40:38;;;;;;;;;22.00;21.00;;;;;25.28;58.00;100606.94;4957671;28;45704;-74
2023/06/18 01:43:11;;;;;;;;;23.00;21.67;;;;;25.33;58.22;100589.59;4954897;28;45409;-72
2023/06/18 01:46:02;;;;;;;;;21.00;19.67;;;;;25.38;57.06;100578.59;4956246;28;45720;-74
2023/06/18 01:48:47;;;;;;;;;22.67;21.00;;;;;25.50;55.95;100579.63;4956717;28;45562;-74
2023/06/18 01:51:18;;;;;;;;;27.67;24.67;;;;;25.53;56.79;100583.00;4955254;28;45673;-74
2023/06/18 01:53:49;;;;;;;;;25.33;20.67;;;;;25.18;57.64;100543.16;4959577;28;45368;-74
2023/06/18 01:56:15;;;;;;;;;22.33;22.33;;;;;25.38;58.40;100579.44;4959614;28;45228;-74
2023/06/18 01:58:44;;;;;;;;;25.33;22.00;;;;;25.56;58.08;100600.72;4957831;28;45352;-74
2023/06/18 02:01:11;;;;;;;;;21.33;20.67;;;;;25.48;59.64;100598.50;4955351;28;45435;-74
2023/06/18 02:03:38;;;;;;;;;24.00;22.67;;;;;25.21;60.56;100581.47;4958221;28;45387;-74
2023/06/18 02:06:04;;;;;;;;;24.00;21.33;;;;;25.21;61.28;100602.91;4954619;28;45424;-74
2023/06/18 02:08:32;;;;;;;;;25.67;22.33;;;;;25.02;60.86;100624.56;4955020;28;46014;-72
2023/06/18 02:11:00;;;;;;;;;20.33;19.67;;;;;24.85;58.98;100618.41;4955350;28;46211;-74
2023/06/18 02:13:26;;;;;;;;;20.67;19.00;;;;;24.80;58.20;100644.59;4954714;28;45620;-74
2023/06/18 02:15:51;;;;;;;;;23.67;22.33;;;;;24.57;58.52;100612.94;4952680;28;45482;-72
2023/06/18 02:18:17;;;;;;;;;23.67;22.00;;;;;24.66;59.38;100645.41;4957872;28;45431;-73
2023/06/18 02:20:44;;;;;;;;;26.00;23.00;;;;;24.20;59.47;100582.91;4958707;28;45536;-72
2023/06/18 02:23:09;;;;;;;;;24.67;22.33;;;;;24.50;60.28;100628.50;4957044;28;45706;-73
2023/06/18 02:25:35;;;;;;;;;23.67;21.00;;;;;24.61;59.27;100622.53;4954069;28;45964;-72
2023/06/18 02:28:05;;;;;;;;;21.00;18.33;;;;;24.50;58.46;100569.59;4954959;28;45467;-73
2023/06/18 02:30:31;;;;;;;;;20.33;18.00;;;;;24.82;60.86;100598.94;4955732;28;45555;-72
2023/06/18 02:33:00;;;;;;;;;24.33;21.67;;;;;24.73;61.26;100595.03;4957065;28;45478;-73
2023/06/18 02:35:28;;;;;;;;;23.00;20.67;;;;;24.40;60.83;100531.75;4956447;28;45572;-72
2023/06/18 02:37:53;;;;;;;;;21.33;21.00;;;;;24.77;59.96;100583.16;4958181;28;45470;-73
2023/06/18 02:40:19;;;;;;;;;22.33;21.33;;;;;24.84;60.70;100592.53;4961533;28;46269;-73
2023/06/18 02:42:48;;;;;;;;;23.33;22.00;;;;;24.86;60.24;100604.03;4958623;28;45741;-73
2023/06/18 02:45:22;;;;;;;;;23.67;23.00;;;;;24.87;60.00;100594.19;4957226;28;45522;-74
2023/06/18 02:47:49;;;;;;;;;28.00;23.67;;;;;24.88;59.63;100599.44;4961457;28;45717;-72
2023/06/18 02:50:16;;;;;;;;;26.67;21.00;;;;;24.87;58.91;100589.69;4960335;28;45361;-73
2023/06/18 02:52:46;;;;;;;;;45.67;36.33;;;;;24.98;59.63;100595.25;4971609;28;45501;-73
2023/06/18 02:55:15;;;;;;;;;53.00;41.33;;;;;25.03;59.34;100583.41;4957412;28;45399;-72
2023/06/18 02:57:45;;;;;;;;;32.67;31.00;;;;;25.18;58.88;100595.91;4960529;28;45754;-73
2023/06/18 03:00:12;;;;;;;;;32.50;28.50;;;;;25.16;60.93;100600.47;4956848;28;45472;-72
2023/06/18 03:02:41;;;;;;;;;21.33;21.33;;;;;25.11;59.92;100603.44;4957208;28;45472;-74
2023/06/18 03:05:07;;;;;;;;;20.00;18.00;;;;;25.11;59.99;100599.91;4957068;28;45423;-73
2023/06/18 03:07:33;;;;;;;;;23.67;20.67;;;;;25.15;60.46;100606.75;4959489;28;45329;-72
2023/06/18 03:09:59;;;;;;;;;25.67;20.00;;;;;25.09;60.17;100604.47;4960849;28;46150;-72
2023/06/18 03:12:26;;;;;;;;;19.00;17.67;;;;;24.86;61.25;100577.25;4961029;28;45419;-73
2023/06/18 03:14:51;;;;;;;;;20.33;16.67;;;;;25.03;59.79;100600.34;4957148;28;45471;-73
2023/06/18 03:17:17;;;;;;;;;19.00;16.67;;;;;25.07;59.33;100604.56;4956837;28;45631;-73
2023/06/18 03:19:43;;;;;;;;;17.67;17.33;;;;;24.83;59.28;100565.88;4956633;28;46343;-73
2023/06/18 03:22:08;;;;;;;;;19.33;18.00;;;;;24.97;59.29;100590.88;4956986;28;45388;-73
2023/06/18 03:24:34;;;;;;;;;21.00;18.67;;;;;25.04;58.17;100599.41;4957149;28;45592;-73
2023/06/18 03:27:03;;;;;;;;;17.00;16.67;;;;;24.97;57.68;100598.91;4957033;28;45388;-73
2023/06/18 03:29:32;;;;;;;;;15.00;14.00;;;;;25.01;57.11;100602.28;4957084;28;46811;-73
2023/06/18 03:31:58;;;;;;;;;20.33;17.67;;;;;25.11;57.11;100616.81;4956837;28;45371;-74
2023/06/18 03:34:23;;;;;;;;;15.00;14.33;;;;;25.09;56.81;100612.50;4955847;28;45734;-73
2023/06/18 03:36:50;;;;;;;;;17.00;15.33;;;;;25.00;56.40;100588.97;4956943;28;45823;-74
2023/06/18 03:39:16;;;;;;;;;19.00;15.00;;;;;25.15;56.43;100622.84;4955479;28;46113;-72
2023/06/18 03:41:43;;;;;;;;;14.67;12.33;;;;;24.88;56.39;100579.84;4956220;28;45333;-73
2023/06/18 03:44:09;;;;;;;;;16.67;15.00;;;;;24.72;55.93;100547.75;4958365;28;45308;-76
2023/06/18 03:46:35;;;;;;;;;26.33;22.00;;;;;25.00;54.79;100583.59;4959755;28;45466;-74
2023/06/18 03:49:01;;;;;;;;;16.67;16.00;;;;;25.32;54.22;100624.56;4956552;28;45768;-74
2023/06/18 03:51:28;;;;;;;;;11.67;11.00;;;;;25.06;54.19;100578.72;4959281;28;45695;-73
2023/06/18 03:53:53;;;;;;;;;12.00;12.00;;;;;25.14;54.07;100584.47;4960903;28;45420;-73
2023/06/18 03:56:23;;;;;;;;;12.33;12.00;;;;;25.44;53.34;100618.44;4960770;28;45383;-75
2023/06/18 03:58:49;;;;;;;;;11.67;10.00;;;;;25.34;53.44;100607.41;4961129;28;45628;-75
2023/06/18 04:01:15;;;;;;;;;12.33;9.67;;;;;25.43;52.98;100616.69;4959740;28;45548;-74
2023/06/18 04:03:41;;;;;;;;;8.67;8.67;;;;;25.47;53.26;100622.75;4957824;28;45461;-76
2023/06/18 04:06:07;;;;;;;;;9.33;8.67;;;;;25.45;52.54;100605.88;4956875;28;45455;-75
2023/06/18 04:08:36;;;;;;;;;10.33;9.00;;;;;25.52;51.87;100617.94;4971573;28;46617;-75
2023/06/18 04:11:02;;;;;;;;;8.33;8.33;;;;;25.35;52.37;100578.78;4959771;28;45749;-75
2023/06/18 04:13:31;;;;;;;;;8.00;8.00;;;;;25.54;51.82;100608.84;4956974;28;45501;-75
2023/06/18 04:16:01;;;;;;;;;10.50;8.75;;;;;25.52;52.53;100608.06;4956537;28;45431;-76
2023/06/18 04:18:29;;;;;;;;;7.00;7.00;;;;;25.42;52.94;100590.00;4960130;28;45480;-76
2023/06/18 04:20:55;;;;;;;;;6.50;6.50;;;;;25.28;53.09;100566.72;4959218;28;45470;-75
2023/06/18 04:23:20;;;;;;;;;10.00;8.25;;;;;25.52;52.82;100610.75;4960050;28;45340;-74
2023/06/18 04:25:46;;;;;;;;;6.75;6.75;;;;;25.45;53.30;100605.88;4960620;28;45411;-74
2023/06/18 04:28:12;;;;;;;;;7.25;6.75;;;;;25.31;52.55;100582.59;4960104;28;46342;-74
2023/06/18 04:30:37;;;;;;;;;7.75;7.00;;;;;25.42;52.53;100598.03;4958216;28;45372;-73
2023/06/18 04:33:03;;;;;;;;;6.33;6.33;;;;;25.20;52.61;100591.31;4955926;28;45702;-74
2023/06/18 04:35:28;;;;;;;;;5.00;5.00;;;;;25.09;53.13;100580.34;4971496;28;45658;-74
2023/06/18 04:37:54;;;;;;;;;7.75;7.75;;;;;25.07;52.55;100571.56;4958060;28;46563;-76
2023/06/18 04:40:21;;;;;;;;;6.75;6.75;;;;;24.91;52.35;100529.59;4960167;28;45274;-73
2023/06/18 04:42:47;;;;;;;;;7.00;7.00;;;;;25.45;51.76;100608.56;4960321;28;45556;-75
2023/06/18 04:45:13;;;;;;;;;7.25;7.25;;;;;25.30;52.14;100579.06;4960095;28;45163;-74
2023/06/18 04:47:40;;;;;;;;;5.50;5.50;;;;;25.62;52.06;100616.41;4959859;28;46505;-75
2023/06/18 04:50:06;;;;;;;;;6.25;6.25;;;;;25.58;52.41;100623.78;4958645;28;45452;-74
2023/06/18 04:52:32;;;;;;;;;9.25;6.25;;;;;25.60;52.22;100627.25;4955473;28;45329;-73
2023/06/18 04:54:58;;;;;;;;;5.25;4.25;;;;;25.38;52.12;100595.53;4954658;28;45491;-74
2023/06/18 04:57:24;;;;;;;;;6.25;6.25;;;;;25.34;51.25;100583.28;4953765;28;47120;-74
2023/06/18 04:59:50;;;;;;;;;8.00;6.00;;;;;25.72;51.29;100644.41;4970390;28;45392;-74
2023/06/18 05:02:17;;;;;;;;;6.00;4.50;;;;;25.78;50.72;100649.34;4958556;28;45827;-75
2023/06/18 05:04:43;;;;;;;;;6.00;6.00;;;;;25.36;51.73;100577.81;4960128;28;45216;-73
2023/06/18 05:07:09;;;;;;;;;6.25;5.50;;;;;25.62;52.41;100632.50;4958803;28;45667;-75
2023/06/18 05:09:35;;;;;;;;;7.00;7.00;;;;;25.46;52.30;100604.91;4955112;28;45535;-73
2023/06/18 05:12:00;;;;;;;;;8.00;7.00;;;;;25.58;52.00;100618.44;4954323;28;45388;-73
2023/06/18 05:14:27;;;;;;;;;5.50;5.50;;;;;25.50;51.92;100601.09;4956356;28;45316;-75
2023/06/18 05:16:53;;;;;;;;;5.75;5.75;;;;;25.74;51.00;100630.88;4955582;28;46404;-74
2023/06/18 05:19:19;;;;;;;;;9.75;6.25;;;;;25.61;51.11;100603.97;4955923;28;45404;-74
2023/06/18 05:21:45;;;;;;;;;6.75;6.00;;;;;25.59;50.73;100604.06;4954217;28;45477;-72
2023/06/18 05:24:10;;;;;;;;;7.00;5.67;;;;;25.86;51.45;100648.00;4956593;28;45778;-73
2023/06/18 05:26:36;;;;;;;;;6.50;6.50;;;;;25.68;51.76;100631.28;4958482;28;45831;-73
2023/06/18 05:29:01;;;;;;;;;7.33;6.67;;;;;25.77;51.92;100647.66;4954709;28;45618;-75
2023/06/18 05:31:30;;;;;;;;;7.25;7.25;;;;;25.51;52.26;100610.88;4956630;28;45419;-75
2023/06/18 05:33:56;;;;;;;;;9.67;9.67;;;;;25.75;52.19;100646.03;4955645;28;45623;-77
2023/06/18 05:36:22;;;;;;;;;11.00;11.00;;;;;25.59;53.99;100643.44;4959007;28;46237;-74
2023/06/18 05:38:50;;;;;;;;;15.33;15.33;;;;;25.39;54.01;100642.84;4954850;28;45460;-74
2023/06/18 05:41:16;;;;;;;;;13.00;11.33;;;;;25.17;53.74;100626.31;4956702;28;45570;-74
2023/06/18 05:43:42;;;;;;;;;12.00;11.33;;;;;25.02;54.41;100614.69;4957067;28;45526;-76
2023/06/18 05:46:07;;;;;;;;;13.00;13.00;;;;;25.13;54.32;100643.53;4953553;28;46648;-76
2023/06/18 05:48:33;;;;;;;;;12.00;10.00;;;;;25.07;54.33;100625.16;4957020;28;45380;-75
2023/06/18 05:51:00;;;;;;;;;11.67;10.33;;;;;25.31;53.56;100646.94;4970731;28;45347;-75
2023/06/18 05:53:26;;;;;;;;;11.33;11.33;;;;;25.27;53.91;100651.63;4940321;28;45327;-74
2023/06/18 05:55:52;;;;;;;;;12.33;10.00;;;;;25.11;53.53;100629.38;4950457;28;45510;-74
2023/06/18 05:58:17;;;;;;;;;10.00;9.67;;;;;25.16;52.96;100636.16;4958529;28;45321;-73
2023/06/18 06:00:46;;;;;;;;;11.33;10.67;;;;;25.09;53.33;100650.88;4958658;28;45419;-75
2023/06/18 06:03:11;;;;;;;;;10.00;10.00;;;;;25.12;53.99;100663.25;4960257;28;45439;-73
2023/06/18 06:05:38;;;;;;;;;12.67;11.33;;;;;25.06;54.08;100651.09;4952697;28;46617;-73
2023/06/18 06:08:06;;;;;;;;;11.00;10.00;;;;;25.14;53.57;100655.97;4939082;28;45700;-74
2023/06/18 06:10:34;;;;;;;;;11.00;9.33;;;;;25.20;53.72;100666.38;4938755;28;45416;-72
2023/06/18 06:13:03;;;;;;;;;16.00;10.67;;;;;25.22;53.28;100663.56;4938343;28;45617;-73
2023/06/18 06:15:32;;;;;;;;;13.33;12.00;;;;;25.16;53.58;100657.59;4938636;28;45623;-75
2023/06/18 06:18:01;;;;;;;;;12.67;12.67;;;;;25.11;53.62;100650.81;4938299;28;45503;-75
2023/06/18 06:20:27;;;;;;;;;14.67;14.67;;;;;24.84;53.73;100635.41;4942642;28;45282;-75
2023/06/18 06:22:53;;;;;;;;;12.67;12.67;;;;;25.00;54.15;100678.22;4941814;28;45400;-73
2023/06/18 06:25:18;;;;;;;;;13.67;13.67;;;;;24.71;55.12;100631.75;4938412;28;46224;-73
2023/06/18 06:27:44;;;;;;;;;15.67;13.00;;;;;24.76;55.65;100659.09;4936980;28;45555;-74
2023/06/18 06:30:10;;;;;;;;;17.33;14.00;;;;;24.70;55.84;100651.41;4938809;28;45416;-72
2023/06/18 06:32:36;;;;;;;;;14.67;13.00;;;;;24.70;55.78;100651.41;4941897;28;45393;-73
2023/06/18 06:35:05;;;;;;;;;12.67;11.33;;;;;24.73;56.01;100665.50;4937979;28;45380;-72
2023/06/18 06:37:32;;;;;;;;;16.00;14.00;;;;;24.68;55.92;100648.84;4939496;28;45450;-73
2023/06/18 06:40:01;;;;;;;;;13.33;13.33;;;;;24.66;55.82;100640.03;4942489;28;45247;-73
2023/06/18 06:42:30;;;;;;;;;15.33;14.00;;;;;24.69;56.41;100657.75;4939940;28;45395;-74
2023/06/18 06:44:57;;;;;;;;;18.67;18.67;;;;;24.65;57.67;100648.16;4938370;28;46759;-73
2023/06/18 06:47:22;;;;;;;;;17.00;17.00;;;;;24.58;58.81;100653.00;4938637;28;45412;-74
2023/06/18 06:49:48;;;;;;;;;14.67;14.67;;;;;24.54;57.77;100641.63;4939276;28;45572;-76
2023/06/18 06:52:17;;;;;;;;;23.33;21.33;;;;;24.68;58.08;100645.31;4942615;28;45286;-75
2023/06/18 06:54:43;;;;;;;;;21.00;20.00;;;;;24.62;58.42;100653.69;4953638;28;48101;-75
2023/06/18 06:57:09;;;;;;;;;19.33;17.33;;;;;24.77;57.16;100655.47;4951854;28;45379;-74
2023/06/18 06:59:34;;;;;;;;;16.67;15.00;;;;;24.86;57.57;100652.25;4940972;28;45554;-74
2023/06/18 07:02:03;;;;;;;;;21.33;21.33;;;;;24.68;57.05;100613.19;4938054;28;45322;-74
2023/06/18 07:04:32;;;;;;;;;24.00;21.33;;;;;24.97;56.61;100649.81;4937660;28;46711;-73
2023/06/18 07:06:58;;;;;;;;;23.33;18.33;;;;;24.97;56.41;100655.16;4957022;28;45456;-74
2023/06/18 07:09:24;;;;;;;;;23.00;22.00;;;;;24.86;56.83;100641.53;4959082;28;45432;-74
2023/06/18 07:11:49;;;;;;;;;20.67;18.33;;;;;24.95;56.90;100657.06;4961568;28;45433;-74
2023/06/18 07:14:15;;;;;;;;;25.67;23.00;;;;;24.93;56.93;100642.91;4959582;28;45524;-73
2023/06/18 07:16:41;;;;;;;;;20.00;17.00;;;;;25.01;56.83;100658.53;4958341;28;45544;-74
2023/06/18 07:19:06;;;;;;;;;22.67;18.33;;;;;24.85;56.34;100634.47;4955523;28;45477;-74
2023/06/18 07:21:32;;;;;;;;;22.00;19.00;;;;;25.01;56.35;100644.25;4959167;28;45464;-73
2023/06/18 07:23:58;;;;;;;;;20.67;18.00;;;;;25.05;55.96;100651.16;4961620;28;45305;-75
2023/06/18 07:26:24;;;;;;;;;16.67;14.67;;;;;25.17;55.58;100653.09;4960098;28;45285;-74
2023/06/18 07:28:50;;;;;;;;;22.33;19.67;;;;;25.22;55.35;100642.13;4957950;28;45504;-75
2023/06/18 07:31:15;;;;;;;;;18.33;17.67;;;;;25.12;53.99;100615.84;4957961;28;46108;-75
2023/06/18 07:33:42;;;;;;;;;17.33;16.00;;;;;24.98;53.80;100589.88;4959944;28;46050;-76
2023/06/18 07:36:08;;;;;;;;;19.00;17.33;;;;;25.34;53.43;100630.66;4956834;28;45528;-74
2023/06/18 07:38:34;;;;;;;;;17.00;16.00;;;;;25.43;54.07;100648.88;4955868;28;45452;-75
2023/06/18 07:41:00;;;;;;;;;19.33;17.33;;;;;25.27;53.85;100614.13;4957590;28;45317;-73
2023/06/18 07:43:26;;;;;;;;;18.67;16.67;;;;;25.30;52.84;100600.50;4961464;28;45388;-76
2023/06/18 07:45:51;;;;;;;;;22.00;19.33;;;;;25.81;52.01;100642.94;4960263;28;45450;-76
2023/06/18 07:48:17;;;;;;;;;21.33;19.00;;;;;25.91;52.02;100640.56;4957618;28;45931;-75
2023/06/18 07:50:43;;;;;;;;;18.33;17.67;;;;;25.85;51.78;100624.84;4959565;28;45474;-76
2023/06/18 07:53:09;;;;;;;;;22.00;22.00;;;;;25.46;51.18;100562.00;4958616;28;46566;-75
2023/06/18 07:55:35;;;;;;;;;19.00;19.00;;;;;25.78;51.26;100627.88;4956194;28;45418;-75
2023/06/18 07:58:01;;;;;;;;;21.67;18.33;;;;;25.90;52.01;100647.75;4956766;28;45725;-76
2023/06/18 08:00:27;;;;;;;;;22.67;21.33;;;;;25.88;51.71;100649.66;4957144;28;45759;-74
2023/06/18 08:02:52;;;;;;;;;21.00;17.67;;;;;25.98;51.22;100649.94;4957770;28;46506;-75
2023/06/18 08:05:18;;;;;;;;;22.67;20.33;;;;;26.06;50.61;100650.31;4959073;28;45497;-73
2023/06/18 08:07:44;;;;;;;;;21.33;18.67;;;;;25.94;50.57;100627.81;4960953;28;45391;-76
2023/06/18 08:10:09;;;;;;;;;19.00;17.67;;;;;26.10;50.74;100646.50;4957258;28;45709;-74
2023/06/18 08:12:35;;;;;;;;;16.00;15.00;;;;;26.23;50.27;100641.19;4954723;28;45525;-74
2023/06/18 08:15:01;;;;;;;;;15.67;15.67;;;;;26.29;50.08;100629.16;4960238;28;45538;-74
2023/06/18 08:17:27;;;;;;;;;20.33;20.33;;;;;26.25;49.90;100616.94;4960167;28;46147;-76
2023/06/18 08:19:53;;;;;;;;;23.33;20.33;;;;;26.43;49.56;100635.38;4960588;28;45396;-74
2023/06/18 08:22:18;;;;;;;;;28.00;26.00;;;;;26.37;49.25;100633.09;4957296;28;46020;-73
2023/06/18 08:24:48;;;;;;;;;22.33;19.67;;;;;26.34;49.21;100625.25;4955695;28;45506;-73
2023/06/18 08:27:18;;;;;;;;;20.00;18.67;;;;;26.34;50.50;100638.66;4955236;28;45490;-74
2023/06/18 08:29:44;;;;;;;;;18.67;18.00;;;;;26.26;50.12;100624.88;4955940;28;45384;-74
2023/06/18 08:32:10;;;;;;;;;19.67;18.33;;;;;26.11;49.21;100583.78;4955904;28;46247;-73
2023/06/18 08:34:42;;;;;;;;;24.33;22.00;;;;;26.36;49.74;100623.31;4957739;28;45455;-72
2023/06/18 08:37:08;;;;;;;;;22.33;20.33;;;;;26.36;49.83;100625.13;4955322;28;45655;-72
2023/06/18 08:39:33;;;;;;;;;19.33;17.33;;;;;26.41;48.95;100618.50;4956074;28;45392;-72
2023/06/18 08:42:02;;;;;;;;;19.67;17.00;;;;;26.41;49.65;100622.97;4956124;28;45495;-71
2023/06/18 08:44:38;;;;;;;;;22.00;20.67;;;;;26.29;48.00;100608.56;4955887;28;45684;-72
2023/06/18 08:47:04;;;;;;;;;18.00;18.00;;;;;26.27;47.71;100609.59;4957501;28;45689;-71
2023/06/18 08:49:32;;;;;;;;;21.00;19.00;;;;;26.26;49.37;100624.00;4955515;28;45519;-70
2023/06/18 08:52:00;;;;;;;;;19.33;17.00;;;;;25.96;48.45;100584.75;4955245;28;45352;-73
2023/06/18 08:54:37;;;;;;;;;21.67;19.33;;;;;26.15;48.65;100612.16;4955890;28;45520;-71
2023/06/18 08:57:14;;;;;;;;;22.33;19.33;;;;;26.13;49.21;100610.53;4955652;28;45410;-74
2023/06/18 08:59:42;;;;;;;;;20.67;19.33;;;;;26.15;48.81;100616.63;4955907;28;45695;-72
2023/06/18 09:02:38;;;;;;;;;21.67;20.33;;;;;26.06;49.59;100609.22;4968652;28;46320;-71
2023/06/18 09:05:05;;;;;;;;;20.33;20.33;;;;;25.78;49.48;100582.28;4947868;28;45314;-73
2023/06/18 09:07:31;;;;;;;;;22.00;20.00;;;;;25.79;50.99;100589.41;4955161;28;45467;-74
2023/06/18 09:10:02;;;;;;;;;21.00;20.00;;;;;25.88;50.65;100613.94;4956752;28;45371;-73
2023/06/18 09:12:28;;;;;;;;;24.00;22.00;;;;;25.81;50.89;100608.06;4955740;28;46455;-73
2023/06/18 09:14:54;;;;;;;;;18.00;18.00;;;;;25.65;50.86;100604.63;4955204;28;45488;-72
2023/06/18 09:17:22;;;;;;;;;21.67;19.67;;;;;25.63;51.18;100593.13;4959255;28;45251;-73
2023/06/18 09:19:49;;;;;;;;;20.33;19.67;;;;;25.68;51.58;100599.94;4958736;28;45301;-72
2023/06/18 09:22:17;;;;;;;;;23.00;20.33;;;;;25.73;51.88;100592.44;4954910;28;45585;-73
2023/06/18 09:24:43;;;;;;;;;23.33;21.00;;;;;25.76;51.27;100596.75;4954543;28;45550;-73
2023/06/18 09:27:09;;;;;;;;;24.33;22.00;;;;;25.51;53.80;100538.47;4945279;28;45356;-75
2023/06/18 09:29:41;;;;;;;;;18.33;18.33;;;;;25.92;52.35;100583.25;4955742;28;45400;-72
2023/06/18 09:32:07;;;;;;;;;22.00;19.33;;;;;26.00;52.28;100587.16;4958157;28;45825;-73
2023/06/18 09:34:34;;;;;;;;;23.33;23.00;;;;;26.09;51.59;100576.81;4954528;28;45426;-73
2023/06/18 09:36:59;;;;;;;;;29.33;25.33;;;;;25.87;51.29;100540.63;4955723;28;45401;-73
2023/06/18 09:39:26;;;;;;;;;20.33;20.33;;;;;26.24;52.00;100578.47;4956606;28;45485;-74
2023/06/18 09:41:54;;;;;;;;;24.67;23.67;;;;;26.39;51.64;100573.91;4951353;28;47206;-74
2023/06/18 09:44:22;;;;;;;;;25.33;21.67;;;;;26.47;51.93;100581.47;4957574;28;45482;-76
2023/06/18 09:46:51;;;;;;;;;27.00;24.00;;;;;26.56;52.58;100562.06;4953370;28;45449;-74
2023/06/18 09:49:19;;;;;;;;;24.00;23.33;;;;;26.84;50.72;100577.19;4952343;28;45436;-72
2023/06/18 09:51:45;;;;;;;;;28.00;25.00;;;;;26.98;50.05;100574.41;4958540;28;45492;-72
2023/06/18 09:54:11;;;;;;;;;28.33;26.00;;;;;27.04;49.72;100571.25;4958903;28;45310;-74
2023/06/18 09:56:38;;;;;;;;;25.00;22.67;;;;;26.93;49.70;100575.66;4948383;28;45343;-72
2023/06/18 09:59:04;;;;;;;;;26.33;24.67;;;;;26.83;50.38;100570.06;4936166;28;45476;-73
2023/06/18 10:01:47;;;;;;;;;27.33;25.00;;;;;26.65;49.58;100532.75;4941500;28;45504;-72
2023/06/18 10:04:13;;;;;;;;;26.33;23.00;;;;;26.56;49.77;100552.19;4968262;28;45788;-73
2023/06/18 10:06:42;;;;;;;;;25.00;24.33;;;;;26.71;49.63;100566.38;4953513;28;45766;-72
2023/06/18 10:09:09;;;;;;;;;27.67;25.00;;;;;26.64;49.48;100571.31;4942565;28;45435;-74
2023/06/18 10:11:37;;;;;;;;;24.67;20.00;;;;;26.51;49.90;100532.81;4941131;28;45713;-73
2023/06/18 10:14:07;;;;;;;;;24.00;22.33;;;;;26.71;48.08;100570.91;4948206;28;45443;-74
2023/06/18 10:16:35;;;;;;;;;26.33;25.33;;;;;26.76;47.85;100560.69;4934951;28;45982;-74
2023/06/18 10:19:16;;;;;;;;;23.00;22.00;;;;;27.07;47.19;100570.19;4945950;28;45471;-73
2023/06/18 10:22:01;;;;;;;;;27.00;23.33;;;;;27.05;46.46;100543.44;4942812;28;45498;-73
2023/06/18 10:24:50;;;;;;;;;24.33;22.33;;;;;27.28;46.47;100563.34;4943442;28;45725;-73
2023/06/18 10:27:16;;;;;;;;;27.00;24.33;;;;;27.54;45.98;100554.38;4951758;28;45471;-73
2023/06/18 10:29:45;;;;;;;;;27.67;26.33;;;;;27.38;45.36;100528.56;4945459;28;45734;-73
2023/06/18 10:32:13;;;;;;;;;26.33;26.33;;;;;27.60;45.21;100556.66;4944601;28;46441;-72
2023/06/18 10:34:39;;;;;;;;;23.33;23.33;;;;;27.21;45.18;100488.59;4952715;28;46006;-73
2023/06/18 10:37:07;;;;;;;;;28.00;24.67;;;;;27.63;45.20;100551.88;4956015;28;45504;-72
2023/06/18 10:39:34;;;;;;;;;36.00;29.33;;;;;27.57;45.31;100552.31;4959438;28;45430;-73
2023/06/18 10:42:19;;;;;;;;;32.33;25.67;;;;;27.42;45.12;100508.56;4956545;28;45432;-73
2023/06/18 10:44:49;;;;;;;;;26.00;24.00;;;;;27.48;45.55;100543.09;4955188;28;45538;-73
2023/06/18 10:47:22;;;;;;;;;24.67;23.00;;;;;27.48;45.76;100539.56;4957964;28;45534;-73
2023/06/18 10:50:03;;;;;;;;;25.33;25.33;;;;;27.72;45.65;100536.06;4957473;28;45483;-74
2023/06/18 10:52:35;;;;;;;;;24.00;24.00;;;;;27.79;45.32;100535.50;4957838;28;45362;-74
2023/06/18 10:55:06;;;;;;;;;35.00;30.00;;;;;27.58;45.34;100513.69;4956270;28;45772;-73
2023/06/18 10:57:36;;;;;;;;;30.33;29.67;;;;;27.74;44.47;100539.47;4957641;28;45559;-78
2023/06/18 11:00:19;;;;;;;;;26.33;26.33;;;;;27.64;45.29;100531.22;4958227;28;45393;-75
2023/06/18 11:02:51;;;;;;;;;29.00;24.67;;;;;27.58;44.55;100520.91;4959260;28;46174;-75
2023/06/18 11:05:33;;;;;;;;;27.67;25.33;;;;;27.85;43.95;100528.81;4957876;28;45995;-76
2023/06/18 11:08:04;;;;;;;;;26.00;24.67;;;;;27.48;43.58;100451.66;4958325;28;45530;-71
2023/06/18 11:10:41;;;;;;;;;28.67;26.33;;;;;27.91;44.17;100517.63;4958319;28;45520;-75
2023/06/18 11:13:09;;;;;;;;;35.67;30.67;;;;;28.04;44.20;100517.53;4960206;28;45299;-76
2023/06/18 11:15:56;;;;;;;;;28.33;27.00;;;;;28.16;43.54;100507.69;4976206;28;45385;-74